sensor_id;sensor_type;location;lat;lon;timestamp;pressure;altitude;pressure_sealevel;temperature;humidity
41706;BME280;27385;51.096;17.190;2022-07-11T00:01:40;100510.17;;;13.98;75.31
41706;BME280;27385;51.096;17.190;2022-07-11T00:04:11;100509.94;;;13.97;75.50
41706;BME280;27385;51.096;17.190;2022-07-11T00:06:40;100508.77;;;13.97;75.70
41706;BME280;27385;51.096;17.190;2022-07-11T00:09:08;100508.39;;;14.00;75.76
41706;BME280;27385;51.096;17.190;2022-07-11T00:11:38;100509.33;;;14.00;75.91
41706;BME280;27385;51.096;17.190;2022-07-11T00:14:07;100506.14;;;14.00;75.77
41706;BME280;27385;51.096;17.190;2022-07-11T00:16:36;100505.23;;;14.00;75.74
41706;BME280;27385;51.096;17.190;2022-07-11T00:19:05;100503.80;;;14.00;76.00
41706;BME280;27385;51.096;17.190;2022-07-11T00:21:34;100502.07;;;14.00;76.03
41706;BME280;27385;51.096;17.190;2022-07-11T00:24:05;100500.17;;;13.99;76.15
41706;BME280;27385;51.096;17.190;2022-07-11T00:26:35;100500.47;;;13.98;76.27
41706;BME280;27385;51.096;17.190;2022-07-11T00:29:04;100501.23;;;13.98;76.07
41706;BME280;27385;51.096;17.190;2022-07-11T00:31:33;100501.64;;;13.99;76.17
41706;BME280;27385;51.096;17.190;2022-07-11T00:34:02;100497.70;;;13.98;76.27
41706;BME280;27385;51.096;17.190;2022-07-11T00:36:31;100501.66;;;13.96;76.53
41706;BME280;27385;51.096;17.190;2022-07-11T00:38:59;100498.08;;;13.94;76.67
41706;BME280;27385;51.096;17.190;2022-07-11T00:41:29;100498.16;;;13.93;76.55
41706;BME280;27385;51.096;17.190;2022-07-11T00:43:58;100493.46;;;13.91;76.98
41706;BME280;27385;51.096;17.190;2022-07-11T00:46:28;100494.05;;;13.88;76.95
41706;BME280;27385;51.096;17.190;2022-07-11T00:48:58;100493.16;;;13.87;76.99
41706;BME280;27385;51.096;17.190;2022-07-11T00:51:27;100490.70;;;13.86;76.88
41706;BME280;27385;51.096;17.190;2022-07-11T00:53:58;100490.16;;;13.88;76.97
41706;BME280;27385;51.096;17.190;2022-07-11T00:56:28;100490.97;;;13.87;76.87
41706;BME280;27385;51.096;17.190;2022-07-11T00:58:59;100485.61;;;13.86;77.03
41706;BME280;27385;51.096;17.190;2022-07-11T01:01:28;100484.74;;;13.86;77.02
41706;BME280;27385;51.096;17.190;2022-07-11T01:03:57;100483.55;;;13.86;77.20
41706;BME280;27385;51.096;17.190;2022-07-11T01:06:26;100486.66;;;13.84;77.24
41706;BME280;27385;51.096;17.190;2022-07-11T01:08:55;100479.50;;;13.82;77.07
41706;BME280;27385;51.096;17.190;2022-07-11T01:11:24;100478.42;;;13.82;76.97
41706;BME280;27385;51.096;17.190;2022-07-11T01:13:53;100477.38;;;13.80;76.87
41706;BME280;27385;51.096;17.190;2022-07-11T01:16:23;100479.95;;;13.77;76.79
41706;BME280;27385;51.096;17.190;2022-07-11T01:18:54;100476.88;;;13.75;76.64
41706;BME280;27385;51.096;17.190;2022-07-11T01:21:28;100476.22;;;13.71;76.37
41706;BME280;27385;51.096;17.190;2022-07-11T01:23:59;100469.23;;;13.65;76.60
41706;BME280;27385;51.096;17.190;2022-07-11T01:26:30;100470.24;;;13.60;76.47
41706;BME280;27385;51.096;17.190;2022-07-11T01:29:07;100470.86;;;13.56;76.40
41706;BME280;27385;51.096;17.190;2022-07-11T01:31:38;100470.91;;;13.50;76.35
41706;BME280;27385;51.096;17.190;2022-07-11T01:34:07;100474.11;;;13.45;76.43
41706;BME280;27385;51.096;17.190;2022-07-11T01:36:37;100473.23;;;13.40;76.23
41706;BME280;27385;51.096;17.190;2022-07-11T01:39:06;100470.84;;;13.34;76.17
41706;BME280;27385;51.096;17.190;2022-07-11T01:41:34;100471.42;;;13.29;76.16
41706;BME280;27385;51.096;17.190;2022-07-11T01:44:03;100472.11;;;13.23;76.02
41706;BME280;27385;51.096;17.190;2022-07-11T01:46:32;100470.16;;;13.17;75.90
41706;BME280;27385;51.096;17.190;2022-07-11T01:49:01;100473.56;;;13.12;75.93
41706;BME280;27385;51.096;17.190;2022-07-11T01:51:33;100472.17;;;13.07;75.99
41706;BME280;27385;51.096;17.190;2022-07-11T01:54:03;100467.30;;;13.02;75.78
41706;BME280;27385;51.096;17.190;2022-07-11T01:56:32;100464.31;;;12.95;75.71
41706;BME280;27385;51.096;17.190;2022-07-11T01:59:01;100463.98;;;12.90;75.76
41706;BME280;27385;51.096;17.190;2022-07-11T02:01:30;100466.77;;;12.84;75.50
41706;BME280;27385;51.096;17.190;2022-07-11T02:03:59;100465.86;;;12.78;75.45
41706;BME280;27385;51.096;17.190;2022-07-11T02:06:28;100464.95;;;12.70;75.44
41706;BME280;27385;51.096;17.190;2022-07-11T02:08:58;100464.59;;;12.64;75.23
41706;BME280;27385;51.096;17.190;2022-07-11T02:11:26;100470.48;;;12.59;75.26
41706;BME280;27385;51.096;17.190;2022-07-11T02:13:55;100474.21;;;12.53;75.12
41706;BME280;27385;51.096;17.190;2022-07-11T02:16:24;100473.95;;;12.46;75.09
41706;BME280;27385;51.096;17.190;2022-07-11T02:18:53;100475.65;;;12.37;75.17
41706;BME280;27385;51.096;17.190;2022-07-11T02:21:22;100474.34;;;12.29;74.97
41706;BME280;27385;51.096;17.190;2022-07-11T02:23:51;100477.16;;;12.23;75.08
41706;BME280;27385;51.096;17.190;2022-07-11T02:26:19;100476.17;;;12.18;74.75
41706;BME280;27385;51.096;17.190;2022-07-11T02:28:48;100479.48;;;12.14;74.73
41706;BME280;27385;51.096;17.190;2022-07-11T02:31:17;100480.77;;;12.07;74.69
41706;BME280;27385;51.096;17.190;2022-07-11T02:33:46;100480.58;;;12.02;74.68
41706;BME280;27385;51.096;17.190;2022-07-11T02:36:15;100484.16;;;11.99;74.69
41706;BME280;27385;51.096;17.190;2022-07-11T02:38:44;100484.11;;;11.97;74.65
41706;BME280;27385;51.096;17.190;2022-07-11T02:41:14;100487.66;;;11.94;74.60
41706;BME280;27385;51.096;17.190;2022-07-11T02:43:44;100484.81;;;11.90;74.66
41706;BME280;27385;51.096;17.190;2022-07-11T02:46:12;100486.85;;;11.88;74.62
41706;BME280;27385;51.096;17.190;2022-07-11T02:48:41;100488.58;;;11.84;74.61
41706;BME280;27385;51.096;17.190;2022-07-11T02:51:10;100486.84;;;11.81;74.35
41706;BME280;27385;51.096;17.190;2022-07-11T02:53:39;100488.33;;;11.77;74.56
41706;BME280;27385;51.096;17.190;2022-07-11T02:56:08;100487.42;;;11.72;74.49
41706;BME280;27385;51.096;17.190;2022-07-11T02:58:37;100487.11;;;11.68;74.53
41706;BME280;27385;51.096;17.190;2022-07-11T03:01:06;100490.94;;;11.65;74.55
41706;BME280;27385;51.096;17.190;2022-07-11T03:03:35;100486.47;;;11.62;74.56
41706;BME280;27385;51.096;17.190;2022-07-11T03:06:06;100485.51;;;11.58;74.69
41706;BME280;27385;51.096;17.190;2022-07-11T03:08:35;100487.45;;;11.53;74.75
41706;BME280;27385;51.096;17.190;2022-07-11T03:11:05;100490.58;;;11.48;74.75
41706;BME280;27385;51.096;17.190;2022-07-11T03:13:34;100486.98;;;11.47;74.78
41706;BME280;27385;51.096;17.190;2022-07-11T03:16:04;100486.02;;;11.45;74.87
41706;BME280;27385;51.096;17.190;2022-07-11T03:18:33;100485.67;;;11.46;75.06
41706;BME280;27385;51.096;17.190;2022-07-11T03:21:01;100487.21;;;11.47;75.22
41706;BME280;27385;51.096;17.190;2022-07-11T03:23:30;100490.94;;;11.49;75.36
41706;BME280;27385;51.096;17.190;2022-07-11T03:25:59;100491.08;;;11.51;75.32
41706;BME280;27385;51.096;17.190;2022-07-11T03:28:28;100490.36;;;11.54;75.64
41706;BME280;27385;51.096;17.190;2022-07-11T03:31:00;100491.85;;;11.57;75.67
41706;BME280;27385;51.096;17.190;2022-07-11T03:33:28;100494.15;;;11.60;75.67
41706;BME280;27385;51.096;17.190;2022-07-11T03:35:57;100491.61;;;11.61;75.85
41706;BME280;27385;51.096;17.190;2022-07-11T03:38:27;100489.48;;;11.64;75.97
41706;BME280;27385;51.096;17.190;2022-07-11T03:40:55;100492.34;;;11.68;76.05
41706;BME280;27385;51.096;17.190;2022-07-11T03:43:24;100494.33;;;11.71;76.15
41706;BME280;27385;51.096;17.190;2022-07-11T03:45:53;100492.42;;;11.75;76.02
41706;BME280;27385;51.096;17.190;2022-07-11T03:48:22;100490.86;;;11.79;76.01
41706;BME280;27385;51.096;17.190;2022-07-11T03:50:51;100493.44;;;11.83;76.16
41706;BME280;27385;51.096;17.190;2022-07-11T03:53:20;100495.21;;;11.86;75.88
41706;BME280;27385;51.096;17.190;2022-07-11T03:55:49;100497.50;;;11.89;76.01
41706;BME280;27385;51.096;17.190;2022-07-11T03:58:18;100502.73;;;11.91;75.88
41706;BME280;27385;51.096;17.190;2022-07-11T04:00:47;100506.08;;;11.93;75.75
41706;BME280;27385;51.096;17.190;2022-07-11T04:03:15;100507.48;;;11.95;75.89
41706;BME280;27385;51.096;17.190;2022-07-11T04:05:44;100505.08;;;11.97;75.73
41706;BME280;27385;51.096;17.190;2022-07-11T04:08:13;100505.02;;;11.99;75.92
41706;BME280;27385;51.096;17.190;2022-07-11T04:10:43;100504.23;;;12.02;75.76
41706;BME280;27385;51.096;17.190;2022-07-11T04:13:12;100511.68;;;12.06;75.69
41706;BME280;27385;51.096;17.190;2022-07-11T04:15:41;100508.51;;;12.10;75.72
41706;BME280;27385;51.096;17.190;2022-07-11T04:18:10;100510.80;;;12.13;75.74
41706;BME280;27385;51.096;17.190;2022-07-11T04:20:39;100511.40;;;12.18;75.59
41706;BME280;27385;51.096;17.190;2022-07-11T04:23:08;100508.17;;;12.25;75.48
41706;BME280;27385;51.096;17.190;2022-07-11T04:25:36;100508.80;;;12.31;75.49
41706;BME280;27385;51.096;17.190;2022-07-11T04:28:06;100510.78;;;12.38;75.45
41706;BME280;27385;51.096;17.190;2022-07-11T04:30:34;100511.56;;;12.44;75.44
41706;BME280;27385;51.096;17.190;2022-07-11T04:33:03;100512.48;;;12.52;75.23
41706;BME280;27385;51.096;17.190;2022-07-11T04:35:32;100510.45;;;12.58;75.13
41706;BME280;27385;51.096;17.190;2022-07-11T04:38:01;100514.27;;;12.64;74.97
41706;BME280;27385;51.096;17.190;2022-07-11T04:40:30;100517.23;;;12.70;74.86
41706;BME280;27385;51.096;17.190;2022-07-11T04:42:59;100515.16;;;12.73;74.81
41706;BME280;27385;51.096;17.190;2022-07-11T04:45:28;100526.15;;;12.80;74.86
41706;BME280;27385;51.096;17.190;2022-07-11T04:47:57;100530.54;;;12.87;74.80
41706;BME280;27385;51.096;17.190;2022-07-11T04:50:27;100533.51;;;12.95;74.41
41706;BME280;27385;51.096;17.190;2022-07-11T04:52:56;100531.60;;;13.04;74.26
41706;BME280;27385;51.096;17.190;2022-07-11T04:55:25;100536.86;;;13.11;73.83
41706;BME280;27385;51.096;17.190;2022-07-11T04:57:54;100537.16;;;13.18;73.85
41706;BME280;27385;51.096;17.190;2022-07-11T05:00:23;100536.27;;;13.24;73.46
41706;BME280;27385;51.096;17.190;2022-07-11T05:02:52;100534.08;;;13.28;73.00
41706;BME280;27385;51.096;17.190;2022-07-11T05:05:23;100539.86;;;13.34;72.95
41706;BME280;27385;51.096;17.190;2022-07-11T05:07:53;100541.30;;;13.40;72.64
41706;BME280;27385;51.096;17.190;2022-07-11T05:10:22;100541.38;;;13.47;72.70
41706;BME280;27385;51.096;17.190;2022-07-11T05:12:52;100544.67;;;13.52;72.14
41706;BME280;27385;51.096;17.190;2022-07-11T05:15:24;100544.73;;;13.52;71.79
41706;BME280;27385;51.096;17.190;2022-07-11T05:17:53;100546.77;;;13.52;71.62
41706;BME280;27385;51.096;17.190;2022-07-11T05:20:22;100547.55;;;13.51;71.57
41706;BME280;27385;51.096;17.190;2022-07-11T05:22:51;100548.31;;;13.49;71.44
41706;BME280;27385;51.096;17.190;2022-07-11T05:25:21;100548.03;;;13.47;71.53
41706;BME280;27385;51.096;17.190;2022-07-11T05:27:49;100551.30;;;13.48;71.42
41706;BME280;27385;51.096;17.190;2022-07-11T05:30:18;100546.79;;;13.51;71.33
41706;BME280;27385;51.096;17.190;2022-07-11T05:32:47;100546.30;;;13.57;71.58
41706;BME280;27385;51.096;17.190;2022-07-11T05:35:16;100547.32;;;13.65;71.67
41706;BME280;27385;51.096;17.190;2022-07-11T05:37:45;100543.80;;;13.74;71.34
41706;BME280;27385;51.096;17.190;2022-07-11T05:40:15;100547.97;;;13.88;71.04
41706;BME280;27385;51.096;17.190;2022-07-11T05:42:44;100542.66;;;14.02;71.17
41706;BME280;27385;51.096;17.190;2022-07-11T05:45:13;100541.67;;;14.17;70.85
41706;BME280;27385;51.096;17.190;2022-07-11T05:47:42;100540.20;;;14.31;70.47
41706;BME280;27385;51.096;17.190;2022-07-11T05:50:11;100542.80;;;14.43;70.28
41706;BME280;27385;51.096;17.190;2022-07-11T05:52:40;100544.06;;;14.53;69.74
41706;BME280;27385;51.096;17.190;2022-07-11T05:55:09;100539.95;;;14.62;69.61
41706;BME280;27385;51.096;17.190;2022-07-11T05:57:41;100543.49;;;14.73;69.42
41706;BME280;27385;51.096;17.190;2022-07-11T06:00:12;100537.40;;;14.79;68.98
41706;BME280;27385;51.096;17.190;2022-07-11T06:02:41;100539.06;;;14.84;68.79
41706;BME280;27385;51.096;17.190;2022-07-11T06:05:13;100535.40;;;14.86;68.69
41706;BME280;27385;51.096;17.190;2022-07-11T06:07:42;100536.55;;;14.90;68.21
41706;BME280;27385;51.096;17.190;2022-07-11T06:10:30;100535.72;;;14.96;68.63
41706;BME280;27385;51.096;17.190;2022-07-11T06:13:00;100537.60;;;15.03;68.27
41706;BME280;27385;51.096;17.190;2022-07-11T06:15:29;100537.27;;;15.08;68.23
41706;BME280;27385;51.096;17.190;2022-07-11T06:17:58;100537.01;;;15.16;68.47
41706;BME280;27385;51.096;17.190;2022-07-11T06:20:27;100534.75;;;15.25;68.16
41706;BME280;27385;51.096;17.190;2022-07-11T06:22:56;100537.44;;;15.32;68.09
41706;BME280;27385;51.096;17.190;2022-07-11T06:25:25;100540.10;;;15.42;68.07
41706;BME280;27385;51.096;17.190;2022-07-11T06:27:54;100542.26;;;15.53;67.89
41706;BME280;27385;51.096;17.190;2022-07-11T06:30:23;100544.86;;;15.65;67.16
41706;BME280;27385;51.096;17.190;2022-07-11T06:32:52;100548.36;;;15.70;67.01
41706;BME280;27385;51.096;17.190;2022-07-11T06:35:22;100551.38;;;15.69;66.38
41706;BME280;27385;51.096;17.190;2022-07-11T06:37:51;100565.34;;;15.67;66.58
41706;BME280;27385;51.096;17.190;2022-07-11T06:40:20;100555.06;;;15.71;66.69
41706;BME280;27385;51.096;17.190;2022-07-11T06:42:48;100560.55;;;15.74;66.12
41706;BME280;27385;51.096;17.190;2022-07-11T06:45:18;100555.02;;;15.74;66.65
41706;BME280;27385;51.096;17.190;2022-07-11T06:47:47;100554.09;;;15.74;66.56
41706;BME280;27385;51.096;17.190;2022-07-11T06:50:16;100552.40;;;15.70;66.50
41706;BME280;27385;51.096;17.190;2022-07-11T06:52:45;100554.39;;;15.68;66.70
41706;BME280;27385;51.096;17.190;2022-07-11T06:55:15;100557.92;;;15.70;66.71
41706;BME280;27385;51.096;17.190;2022-07-11T06:57:44;100559.41;;;15.69;66.77
41706;BME280;27385;51.096;17.190;2022-07-11T07:00:15;100561.65;;;15.67;66.93
41706;BME280;27385;51.096;17.190;2022-07-11T07:02:44;100560.68;;;15.66;66.84
41706;BME280;27385;51.096;17.190;2022-07-11T07:05:12;100562.86;;;15.64;66.70
41706;BME280;27385;51.096;17.190;2022-07-11T07:07:41;100562.75;;;15.61;66.64
41706;BME280;27385;51.096;17.190;2022-07-11T07:10:11;100565.25;;;15.59;66.47
41706;BME280;27385;51.096;17.190;2022-07-11T07:12:40;100565.64;;;15.53;66.04
41706;BME280;27385;51.096;17.190;2022-07-11T07:15:10;100562.91;;;15.46;65.73
41706;BME280;27385;51.096;17.190;2022-07-11T07:17:39;100561.16;;;15.41;66.38
41706;BME280;27385;51.096;17.190;2022-07-11T07:20:11;100557.02;;;15.40;67.18
41706;BME280;27385;51.096;17.190;2022-07-11T07:22:40;100550.96;;;15.37;67.31
41706;BME280;27385;51.096;17.190;2022-07-11T07:25:10;100551.58;;;15.36;67.57
41706;BME280;27385;51.096;17.190;2022-07-11T07:27:39;100549.84;;;15.36;67.65
41706;BME280;27385;51.096;17.190;2022-07-11T07:30:10;100553.23;;;15.40;67.85
41706;BME280;27385;51.096;17.190;2022-07-11T07:32:38;100550.62;;;15.46;67.68
41706;BME280;27385;51.096;17.190;2022-07-11T07:35:09;100546.30;;;15.49;67.38
41706;BME280;27385;51.096;17.190;2022-07-11T07:37:37;100543.04;;;15.56;67.55
41706;BME280;27385;51.096;17.190;2022-07-11T07:40:08;100542.95;;;15.61;67.00
41706;BME280;27385;51.096;17.190;2022-07-11T07:42:36;100539.30;;;15.67;66.84
41706;BME280;27385;51.096;17.190;2022-07-11T07:45:07;100541.45;;;15.74;66.35
41706;BME280;27385;51.096;17.190;2022-07-11T07:47:36;100546.64;;;15.79;66.15
41706;BME280;27385;51.096;17.190;2022-07-11T07:50:07;100548.31;;;15.85;65.76
41706;BME280;27385;51.096;17.190;2022-07-11T07:52:35;100553.89;;;15.91;65.68
41706;BME280;27385;51.096;17.190;2022-07-11T07:55:07;100554.44;;;16.06;65.82
41706;BME280;27385;51.096;17.190;2022-07-11T07:57:36;100561.27;;;16.23;65.50
41706;BME280;27385;51.096;17.190;2022-07-11T08:00:07;100563.89;;;16.35;64.13
41706;BME280;27385;51.096;17.190;2022-07-11T08:02:54;100556.71;;;16.32;63.77
41706;BME280;27385;51.096;17.190;2022-07-11T08:05:23;100549.50;;;16.31;64.61
41706;BME280;27385;51.096;17.190;2022-07-11T08:07:52;100552.67;;;16.37;64.76
41706;BME280;27385;51.096;17.190;2022-07-11T08:10:21;100553.86;;;16.43;64.56
41706;BME280;27385;51.096;17.190;2022-07-11T08:12:51;100555.34;;;16.45;64.47
41706;BME280;27385;51.096;17.190;2022-07-11T08:15:21;100551.26;;;16.50;64.42
41706;BME280;27385;51.096;17.190;2022-07-11T08:17:54;100546.77;;;16.62;64.07
41706;BME280;27385;51.096;17.190;2022-07-11T08:20:23;100543.43;;;16.68;63.39
41706;BME280;27385;51.096;17.190;2022-07-11T08:22:52;100547.30;;;16.76;63.07
41706;BME280;27385;51.096;17.190;2022-07-11T08:25:21;100534.94;;;16.85;63.12
41706;BME280;27385;51.096;17.190;2022-07-11T08:27:50;100536.45;;;16.99;62.67
41706;BME280;27385;51.096;17.190;2022-07-11T08:30:19;100526.98;;;17.10;62.98
41706;BME280;27385;51.096;17.190;2022-07-11T08:32:48;100531.20;;;17.22;62.39
41706;BME280;27385;51.096;17.190;2022-07-11T08:35:17;100531.06;;;17.34;61.61
41706;BME280;27385;51.096;17.190;2022-07-11T08:37:47;100529.23;;;17.38;61.45
41706;BME280;27385;51.096;17.190;2022-07-11T08:40:15;100526.30;;;17.46;60.90
41706;BME280;27385;51.096;17.190;2022-07-11T08:42:45;100529.41;;;17.55;60.66
41706;BME280;27385;51.096;17.190;2022-07-11T08:45:15;100520.02;;;17.64;60.79
41706;BME280;27385;51.096;17.190;2022-07-11T08:47:43;100528.43;;;17.75;60.29
41706;BME280;27385;51.096;17.190;2022-07-11T08:50:13;100526.55;;;17.78;59.96
41706;BME280;27385;51.096;17.190;2022-07-11T08:52:42;100520.56;;;17.84;59.25
41706;BME280;27385;51.096;17.190;2022-07-11T08:55:11;100519.38;;;17.86;59.94
41706;BME280;27385;51.096;17.190;2022-07-11T08:57:42;100517.52;;;17.89;59.33
41706;BME280;27385;51.096;17.190;2022-07-11T09:00:13;100522.42;;;17.92;58.84
41706;BME280;27385;51.096;17.190;2022-07-11T09:02:43;100530.57;;;17.94;57.80
41706;BME280;27385;51.096;17.190;2022-07-11T09:05:13;100530.02;;;17.91;57.80
41706;BME280;27385;51.096;17.190;2022-07-11T09:07:46;100531.19;;;17.87;57.59
41706;BME280;27385;51.096;17.190;2022-07-11T09:10:16;100526.44;;;17.82;57.57
41706;BME280;27385;51.096;17.190;2022-07-11T09:13:02;100530.70;;;17.72;57.06
41706;BME280;27385;51.096;17.190;2022-07-11T09:15:36;100520.21;;;17.66;56.94
41706;BME280;27385;51.096;17.190;2022-07-11T09:20:57;100518.52;;;17.85;57.09
41706;BME280;27385;51.096;17.190;2022-07-11T09:23:46;100511.84;;;18.01;57.76
41706;BME280;27385;51.096;17.190;2022-07-11T09:26:35;100519.83;;;18.16;57.48
41706;BME280;27385;51.096;17.190;2022-07-11T09:29:06;100514.23;;;18.25;57.17
41706;BME280;27385;51.096;17.190;2022-07-11T09:31:45;100514.47;;;18.33;57.18
41706;BME280;27385;51.096;17.190;2022-07-11T09:34:19;100508.80;;;18.43;56.94
41706;BME280;27385;51.096;17.190;2022-07-11T09:37:02;100511.88;;;18.50;56.69
41706;BME280;27385;51.096;17.190;2022-07-11T09:39:34;100506.98;;;18.47;56.82
41706;BME280;27385;51.096;17.190;2022-07-11T09:42:04;100505.89;;;18.58;57.19
41706;BME280;27385;51.096;17.190;2022-07-11T09:44:33;100506.73;;;18.73;56.86
41706;BME280;27385;51.096;17.190;2022-07-11T09:47:09;100504.71;;;18.80;56.18
41706;BME280;27385;51.096;17.190;2022-07-11T09:49:39;100508.59;;;18.82;55.66
41706;BME280;27385;51.096;17.190;2022-07-11T09:52:12;100506.11;;;18.84;55.50
41706;BME280;27385;51.096;17.190;2022-07-11T09:54:54;100501.14;;;18.82;55.46
41706;BME280;27385;51.096;17.190;2022-07-11T09:57:31;100492.04;;;18.82;55.36
41706;BME280;27385;51.096;17.190;2022-07-11T10:03:05;100481.06;;;19.02;55.49
41706;BME280;27385;51.096;17.190;2022-07-11T10:05:35;100472.80;;;19.13;54.69
41706;BME280;27385;51.096;17.190;2022-07-11T10:08:20;100476.80;;;19.23;54.79
41706;BME280;27385;51.096;17.190;2022-07-11T10:11:01;100484.27;;;19.37;54.46
41706;BME280;27385;51.096;17.190;2022-07-11T10:13:58;100476.92;;;19.43;54.23
41706;BME280;27385;51.096;17.190;2022-07-11T10:16:37;100477.92;;;19.53;53.50
41706;BME280;27385;51.096;17.190;2022-07-11T10:19:16;100473.60;;;19.52;53.89
41706;BME280;27385;51.096;17.190;2022-07-11T10:21:59;100480.45;;;19.54;53.57
41706;BME280;27385;51.096;17.190;2022-07-11T10:24:51;100481.86;;;19.48;52.80
41706;BME280;27385;51.096;17.190;2022-07-11T10:27:28;100484.33;;;19.29;52.12
41706;BME280;27385;51.096;17.190;2022-07-11T10:30:00;100482.05;;;19.10;52.36
41706;BME280;27385;51.096;17.190;2022-07-11T10:32:32;100483.27;;;18.97;53.13
41706;BME280;27385;51.096;17.190;2022-07-11T10:35:11;100493.95;;;18.90;53.42
41706;BME280;27385;51.096;17.190;2022-07-11T10:37:48;100494.98;;;18.82;53.91
41706;BME280;27385;51.096;17.190;2022-07-11T10:40:44;100508.89;;;18.67;55.94
41706;BME280;27385;51.096;17.190;2022-07-11T10:43:15;100509.73;;;18.39;57.35
41706;BME280;27385;51.096;17.190;2022-07-11T10:45:55;100516.59;;;18.17;58.17
41706;BME280;27385;51.096;17.190;2022-07-11T10:48:25;100510.27;;;17.96;58.94
41706;BME280;27385;51.096;17.190;2022-07-11T10:51:08;100507.16;;;17.84;59.81
41706;BME280;27385;51.096;17.190;2022-07-11T10:53:46;100495.39;;;17.76;59.52
41706;BME280;27385;51.096;17.190;2022-07-11T10:56:41;100493.34;;;17.77;59.80
41706;BME280;27385;51.096;17.190;2022-07-11T10:59:16;100491.46;;;17.83;59.33
41706;BME280;27385;51.096;17.190;2022-07-11T11:02:07;100491.45;;;17.87;59.40
41706;BME280;27385;51.096;17.190;2022-07-11T11:04:46;100492.18;;;17.92;59.24
41706;BME280;27385;51.096;17.190;2022-07-11T11:07:32;100487.50;;;17.99;59.39
41706;BME280;27385;51.096;17.190;2022-07-11T11:10:04;100484.85;;;18.11;58.70
41706;BME280;27385;51.096;17.190;2022-07-11T11:13:10;100477.85;;;18.24;58.47
41706;BME280;27385;51.096;17.190;2022-07-11T11:15:43;100476.82;;;18.50;58.41
41706;BME280;27385;51.096;17.190;2022-07-11T11:18:36;100478.30;;;18.73;57.79
41706;BME280;27385;51.096;17.190;2022-07-11T11:21:22;100482.20;;;18.88;56.88
41706;BME280;27385;51.096;17.190;2022-07-11T11:24:05;100484.85;;;18.94;55.70
41706;BME280;27385;51.096;17.190;2022-07-11T11:26:52;100484.21;;;19.01;55.23
41706;BME280;27385;51.096;17.190;2022-07-11T11:29:27;100493.90;;;19.08;53.57
41706;BME280;27385;51.096;17.190;2022-07-11T11:31:59;100485.11;;;19.16;53.86
41706;BME280;27385;51.096;17.190;2022-07-11T11:34:28;100483.73;;;19.22;52.69
41706;BME280;27385;51.096;17.190;2022-07-11T11:36:59;100484.95;;;19.25;51.88
41706;BME280;27385;51.096;17.190;2022-07-11T11:39:32;100482.83;;;19.26;50.43
41706;BME280;27385;51.096;17.190;2022-07-11T11:42:11;100481.90;;;19.30;50.12
41706;BME280;27385;51.096;17.190;2022-07-11T11:44:51;100485.35;;;19.40;50.37
41706;BME280;27385;51.096;17.190;2022-07-11T11:47:21;100490.67;;;19.52;48.12
41706;BME280;27385;51.096;17.190;2022-07-11T11:49:49;100484.25;;;19.54;48.49
41706;BME280;27385;51.096;17.190;2022-07-11T11:52:18;100484.63;;;19.56;48.42
41706;BME280;27385;51.096;17.190;2022-07-11T11:54:57;100478.85;;;19.56;48.50
41706;BME280;27385;51.096;17.190;2022-07-11T11:57:27;100498.13;;;19.55;47.65
41706;BME280;27385;51.096;17.190;2022-07-11T11:59:57;100498.16;;;19.53;48.47
41706;BME280;27385;51.096;17.190;2022-07-11T12:02:28;100501.13;;;19.50;50.00
41706;BME280;27385;51.096;17.190;2022-07-11T12:04:57;100510.23;;;19.46;50.02
41706;BME280;27385;51.096;17.190;2022-07-11T12:07:28;100516.23;;;19.42;50.29
41706;BME280;27385;51.096;17.190;2022-07-11T12:09:58;100526.39;;;19.40;50.85
41706;BME280;27385;51.096;17.190;2022-07-11T12:12:28;100528.55;;;19.18;51.56
41706;BME280;27385;51.096;17.190;2022-07-11T12:15:30;100538.27;;;18.91;52.65
41706;BME280;27385;51.096;17.190;2022-07-11T12:18:02;100552.18;;;18.68;54.54
41706;BME280;27385;51.096;17.190;2022-07-11T12:20:41;100553.63;;;18.47;55.70
41706;BME280;27385;51.096;17.190;2022-07-11T12:23:13;100543.41;;;18.17;56.35
41706;BME280;27385;51.096;17.190;2022-07-11T12:25:44;100544.23;;;17.94;57.18
41706;BME280;27385;51.096;17.190;2022-07-11T12:28:13;100548.57;;;17.72;57.86
41706;BME280;27385;51.096;17.190;2022-07-11T12:30:42;100561.10;;;17.56;58.58
41706;BME280;27385;51.096;17.190;2022-07-11T12:33:12;100578.71;;;17.38;59.66
41706;BME280;27385;51.096;17.190;2022-07-11T12:35:54;100580.33;;;17.10;61.61
41706;BME280;27385;51.096;17.190;2022-07-11T12:38:25;100564.08;;;16.77;62.73
41706;BME280;27385;51.096;17.190;2022-07-11T12:41:04;100555.16;;;16.60;63.17
41706;BME280;27385;51.096;17.190;2022-07-11T12:43:43;100562.16;;;16.47;63.36
41706;BME280;27385;51.096;17.190;2022-07-11T12:46:32;100570.04;;;16.33;64.29
41706;BME280;27385;51.096;17.190;2022-07-11T12:49:04;100576.94;;;16.23;64.93
41706;BME280;27385;51.096;17.190;2022-07-11T12:51:35;100584.57;;;16.18;65.41
41706;BME280;27385;51.096;17.190;2022-07-11T12:54:08;100596.95;;;16.13;66.41
41706;BME280;27385;51.096;17.190;2022-07-11T12:56:38;100611.79;;;16.03;66.63
41706;BME280;27385;51.096;17.190;2022-07-11T12:59:18;100629.29;;;15.88;66.88
41706;BME280;27385;51.096;17.190;2022-07-11T13:01:58;100633.31;;;15.83;67.35
41706;BME280;27385;51.096;17.190;2022-07-11T13:04:33;100625.41;;;15.76;67.64
41706;BME280;27385;51.096;17.190;2022-07-11T13:07:29;100637.73;;;15.72;68.32
41706;BME280;27385;51.096;17.190;2022-07-11T13:10:17;100659.82;;;15.61;69.25